Wetterdaten der Wetterstation 52249 Eschweiler

Letzte Wetterlage 02.08.2015 08:12
Wetterdiagramm
Tabellarische Darstellung
Datum Temperatur Windchill Feuchte Luftdruck Windrichtung Windstärke Niederschlag
02.08.2015 08:12 14,6 °C 14,6 °C 83 % 1019,8 hPa 168 0.0 0 l/m²
02.08.2015 07:52 13,3 °C 13,3 °C 87 % 1019,8 hPa 168 0.0 0 l/m²
02.08.2015 07:32 12,1 °C 12,1 °C 92 % 1019,7 hPa 321 0.0 0 l/m²
02.08.2015 07:12 10,3 °C 10,3 °C 97 % 1019,8 hPa 321 0.0 0 l/m²
02.08.2015 06:52 9,6 °C 9,6 °C 96 % 1019,6 hPa 321 0.0 0 l/m²
02.08.2015 06:32 9,3 °C 9,3 °C 95 % 1019,3 hPa 321 0.0 0 l/m²
02.08.2015 06:12 9,3 °C 9,3 °C 94 % 1019,3 hPa 321 0.0 0 l/m²
02.08.2015 05:52 9,4 °C 9,4 °C 93 % 1019,2 hPa 321 0.0 0 l/m²
02.08.2015 05:32 9,6 °C 9,6 °C 93 % 1019,1 hPa 321 0.0 0 l/m²
02.08.2015 05:12 9,7 °C 9,7 °C 92 % 1019,0 hPa 321 0.0 0 l/m²
02.08.2015 04:52 9,8 °C 9,8 °C 92 % 1019,0 hPa 321 0.0 0 l/m²
02.08.2015 04:32 9,9 °C 9,9 °C 91 % 1018,8 hPa 321 0.0 0 l/m²
02.08.2015 04:12 10,2 °C 10,2 °C 90 % 1018,8 hPa 321 0.0 0 l/m²
02.08.2015 03:52 10,4 °C 10,4 °C 90 % 1018,7 hPa 321 0.0 0 l/m²
02.08.2015 03:32 10,7 °C 10,7 °C 90 % 1018,6 hPa 321 0.0 0 l/m²
02.08.2015 03:12 10,8 °C 10,8 °C 89 % 1018,7 hPa 321 0.0 0 l/m²
02.08.2015 02:52 11,1 °C 11,1 °C 88 % 1018,6 hPa 321 0.0 0 l/m²
02.08.2015 02:32 11,4 °C 11,4 °C 87 % 1018,6 hPa 321 0.0 0 l/m²
02.08.2015 02:12 11,8 °C 11,8 °C 86 % 1018,6 hPa 321 0.0 0 l/m²
02.08.2015 01:52 12,2 °C 12,2 °C 85 % 1018,5 hPa 321 0.0 0 l/m²
02.08.2015 01:32 12,6 °C 12,6 °C 83 % 1018,4 hPa 321 0.0 0 l/m²
02.08.2015 01:12 13,1 °C 13,1 °C 83 % 1018,5 hPa 321 0.0 0 l/m²
02.08.2015 00:52 13,7 °C 13,7 °C 81 % 1018,4 hPa 321 0.0 0 l/m²
02.08.2015 00:32 14,5 °C 14,5 °C 77 % 1018,3 hPa 321 0.0 0 l/m²
02.08.2015 00:12 15,2 °C 15,2 °C 74 % 1018,1 hPa 321 0.0 0 l/m²
Neue Wetterwarnung

Neue Niederschlagsmeldung
Neue Meldung
Regen Liveticker
    sehr starker Regen/Gewitter
    starker Regen/Gewitter
    mäßiger bis starker Regen
    mäßiger Regen
    leichter bis mäßiger Regen
    kein Regen